Time;durP1;ratioP1;P1;durP2;ratioP2;P2;SDS_P1;SDS_P2;PMS_P1;PMS_P2;Temp;Humidity;BMP_temperature;BMP_pressure;BME280_temperature;BME280_humidity;BME280_pressure;Samples;Min_cycle;Max_cycle;Signal;HPM_P1;HPM_P2
2022/03/18 00:02:24;;;;;;;27.08;9.02;;;;;;;;;;6035949;23;20411;-93
2022/03/18 00:04:52;;;;;;;25.17;8.40;;;4.10;99.90;;;;;;6061690;23;20039;-89
2022/03/18 00:07:20;;;;;;;;;;;3.90;99.90;;;;;;6060299;23;20093;-87
2022/03/18 00:09:47;;;;;;;25.75;9.13;;;4.20;99.90;;;;;;6061295;23;20001;-87
2022/03/18 00:12:13;;;;;;;27.73;8.80;;;5.00;99.90;;;;;;6013525;23;20327;-89
2022/03/18 00:14:42;;;;;;;29.35;8.73;;;4.60;99.90;;;;;;6061691;23;20407;-90
2022/03/18 00:17:09;;;;;;;22.40;8.80;;;4.40;99.90;;;;;;6060067;23;20098;-90
2022/03/18 00:19:35;;;;;;;35.50;10.40;;;2.60;99.90;;;;;;6061050;23;20019;-87
2022/03/18 00:22:02;;;;;;;30.38;9.20;;;4.30;99.90;;;;;;6061044;23;20342;-87
2022/03/18 00:24:31;;;;;;;34.17;9.70;;;4.30;99.90;;;;;;6063982;23;20015;-86
2022/03/18 00:27:01;;;;;;;31.85;10.02;;;4.40;99.90;;;;;;6061077;23;20041;-86
2022/03/18 00:29:27;;;;;;;28.95;9.65;;;3.00;99.90;;;;;;6036006;23;20026;-87
2022/03/18 00:31:53;;;;;;;27.50;9.25;;;4.50;99.90;;;;;;6063498;23;20019;-87
2022/03/18 00:34:22;;;;;;;33.97;10.05;;;4.10;99.90;;;;;;6060529;23;20027;-89
2022/03/18 00:36:48;;;;;;;24.40;9.32;;;4.30;99.90;;;;;;6062493;23;20022;-88
2022/03/18 00:39:14;;;;;;;28.65;9.45;;;5.00;99.90;;;;;;6064105;23;20015;-87
2022/03/18 00:41:41;;;;;;;29.13;10.10;;;4.30;99.90;;;;;;6085446;23;20350;-87
2022/03/18 00:44:07;;;;;;;30.58;9.57;;;4.80;99.90;;;;;;6086963;23;20015;-87
2022/03/18 00:46:33;;;;;;;21.88;9.07;;;5.00;99.90;;;;;;6016279;23;20390;-87
2022/03/18 00:54:27;;;;;;;30.60;10.85;;;4.60;99.90;;;;;;6059088;23;20505;-87
2022/03/18 00:56:53;;;;;;;31.50;10.65;;;2.70;99.90;;;;;;6060107;23;20051;-87
2022/03/18 00:59:19;;;;;;;35.05;11.43;;;6.60;99.90;;;;;;6037009;23;20015;-87
2022/03/18 01:01:45;;;;;;;33.40;10.20;;;;;;;;;;6062489;23;20506;-87
2022/03/18 01:04:11;;;;;;;29.90;10.65;;;3.90;99.90;;;;;;6057488;23;20438;-87
2022/03/18 01:06:36;;;;;;;30.63;11.50;;;4.60;99.90;;;;;;6062518;23;20078;-87
2022/03/18 01:09:04;;;;;;;29.17;10.90;;;4.30;99.90;;;;;;6061897;23;20022;-87
2022/03/18 01:11:31;;;;;;;29.40;11.45;;;4.20;99.90;;;;;;6061953;23;20277;-87
2022/03/18 01:13:57;;;;;;;34.65;12.85;;;3.80;99.90;;;;;;6084677;23;20327;-88
2022/03/18 01:16:23;;;;;;;28.90;11.02;;;4.10;99.90;;;;;;6038087;23;20469;-87
2022/03/18 01:18:50;;;;;;;26.48;10.98;;;4.20;99.90;;;;;;6059465;23;20465;-89
2022/03/18 01:21:15;;;;;;;31.77;11.75;;;2.90;99.90;;;;;;6059734;23;20035;-87
2022/03/18 01:23:41;;;;;;;29.38;12.88;;;3.90;99.90;;;;;;6036344;23;20034;-87
2022/03/18 01:26:07;;;;;;;30.13;12.20;;;4.10;99.90;;;;;;6060169;23;20014;-89
2022/03/18 01:28:33;;;;;;;28.15;11.98;;;4.60;99.90;;;;;;6062331;23;20015;-87
2022/03/18 01:30:59;;;;;;;34.72;11.93;;;;;;;;;;6035864;23;20030;-90
2022/03/18 01:33:25;;;;;;;32.95;12.45;;;;;;;;;;6059505;23;20062;-89
2022/03/18 01:35:51;;;;;;;33.67;11.98;;;4.20;99.90;;;;;;6062288;23;20034;-87
2022/03/18 01:38:17;;;;;;;26.70;11.02;;;4.20;99.90;;;;;;6058907;23;20026;-88
2022/03/18 01:40:42;;;;;;;28.48;11.70;;;4.20;99.90;;;;;;6012878;23;20015;-87
2022/03/18 01:43:10;;;;;;;36.55;11.77;;;4.30;99.90;;;;;;6061286;23;20054;-87
2022/03/18 01:45:35;;;;;;;37.63;12.50;;;3.10;99.90;;;;;;6061656;23;20062;-86
2022/03/18 01:48:02;;;;;;;30.73;13.00;;;4.10;99.90;;;;;;6061742;23;20446;-87
2022/03/18 01:50:28;;;;;;;30.85;11.65;;;6.40;99.90;;;;;;6062841;23;20419;-87
2022/03/18 01:52:54;;;;;;;30.65;11.82;;;4.20;99.90;;;;;;6062020;23;20150;-87
2022/03/18 01:55:24;;;;;;;33.45;12.68;;;4.30;99.90;;;;;;6059924;23;20019;-91
2022/03/18 01:57:50;;;;;;;37.58;12.30;;;4.30;99.90;;;;;;6063665;23;20026;-87
2022/03/18 02:00:19;;;;;;;37.60;13.00;;;7.10;99.90;;;;;;6061086;23;20023;-87
2022/03/18 02:02:46;;;;;;;29.85;12.73;;;4.80;99.90;;;;;;6062032;23;20057;-87
2022/03/18 02:05:12;;;;;;;26.02;11.98;;;4.10;99.90;;;;;;6037324;23;20074;-86
2022/03/18 02:07:38;;;;;;;45.03;11.93;;;3.50;99.90;;;;;;6060562;23;20361;-87
2022/03/18 02:10:05;;;;;;;37.70;14.43;;;4.10;99.90;;;;;;6040361;23;20079;-87
2022/03/18 02:12:31;;;;;;;37.60;12.17;;;4.80;99.90;;;;;;6063768;23;20023;-86
2022/03/18 02:14:57;;;;;;;34.25;12.40;;;5.10;99.90;;;;;;6060901;23;20022;-86
2022/03/18 02:17:23;;;;;;;32.95;11.60;;;1.00;99.90;;;;;;6063455;23;20312;-86
2022/03/18 02:19:49;;;;;;;40.90;12.45;;;3.90;99.90;;;;;;6035502;23;20027;-86
2022/03/18 02:22:19;;;;;;;28.02;10.70;;;5.70;99.90;;;;;;6061776;23;20033;-86
2022/03/18 02:24:46;;;;;;;30.33;11.68;;;4.30;99.90;;;;;;6060024;23;20015;-87
2022/03/18 02:27:12;;;;;;;36.67;12.02;;;4.20;99.90;;;;;;6063422;23;20023;-86
2022/03/18 02:29:39;;;;;;;34.08;12.18;;;6.50;99.90;;;;;;6039262;23;20027;-91
2022/03/18 02:32:07;;;;;;;36.05;12.80;;;4.20;99.90;;;;;;6036817;23;20101;-86
2022/03/18 02:34:34;;;;;;;31.13;12.57;;;4.50;99.90;;;;;;6016019;23;20019;-87
2022/03/18 02:37:00;;;;;;;34.42;12.07;;;4.20;99.90;;;;;;6063303;23;20023;-86
2022/03/18 02:39:25;;;;;;;37.17;12.80;;;5.70;99.90;;;;;;6038079;23;20026;-87
2022/03/18 02:41:51;;;;;;;34.10;12.20;;;5.50;99.90;;;;;;6019291;23;20464;-87
2022/03/18 02:44:17;;;;;;;34.65;13.15;;;5.10;99.90;;;;;;6068137;23;20015;-86
2022/03/18 02:46:43;;;;;;;29.60;12.93;;;;;;;;;;6066503;23;20033;-86
2022/03/18 02:49:09;;;;;;;33.25;12.75;;;4.60;99.90;;;;;;6068532;23;20026;-87
2022/03/18 02:51:44;;;;;;;33.28;14.25;;;4.50;99.90;;;;;;6068349;23;20019;-87
2022/03/18 02:54:10;;;;;;;38.00;13.80;;;4.60;99.90;;;;;;6042821;23;20343;-87
2022/03/18 02:56:36;;;;;;;36.03;14.07;;;;;;;;;;6018072;23;20019;-87
2022/03/18 02:59:03;;;;;;;35.80;13.23;;;4.50;99.90;;;;;;6042938;23;20018;-87
2022/03/18 03:01:32;;;;;;;35.95;13.55;;;4.50;99.90;;;;;;6069345;23;20018;-86
2022/03/18 03:03:59;;;;;;;32.45;12.43;;;4.60;99.90;;;;;;6068651;23;20450;-88
2022/03/18 03:09:09;;;;;;;30.80;12.43;;;4.20;99.90;;;;;;6043665;23;20114;-86
2022/03/18 03:11:38;;;;;;;34.42;13.00;;;4.90;99.90;;;;;;6043297;23;20154;-86
2022/03/18 03:14:04;;;;;;;36.78;12.90;;;4.40;99.90;;;;;;6019995;23;20027;-86
2022/03/18 03:16:30;;;;;;;35.22;12.65;;;4.50;99.90;;;;;;6066994;23;20022;-86
2022/03/18 03:18:57;;;;;;;29.15;12.55;;;4.60;99.90;;;;;;6042396;23;20315;-87
2022/03/18 03:21:23;;;;;;;43.72;12.52;;;4.40;99.90;;;;;;6042264;23;20473;-87
2022/03/18 03:23:49;;;;;;;33.63;12.18;;;;;;;;;;5995523;23;20023;-86
2022/03/18 03:26:14;;;;;;;29.73;12.43;;;4.30;99.90;;;;;;6068325;23;20435;-87
2022/03/18 03:28:41;;;;;;;33.67;12.50;;;6.00;99.90;;;;;;6068553;23;20114;-87
2022/03/18 03:34:44;;;;;;;30.67;11.57;;;4.00;99.90;;;;;;6069165;23;20413;-86
2022/03/18 03:37:10;;;;;;;31.83;11.68;;;4.90;99.90;;;;;;6068076;23;20026;-86
2022/03/18 03:39:37;;;;;;;38.95;12.73;;;3.90;99.90;;;;;;6067112;23;20396;-86
2022/03/18 03:45:56;;;;;;;27.75;12.15;;;4.00;99.90;;;;;;6069407;23;20015;-86
2022/03/18 03:51:57;;;;;;;31.98;12.55;;;4.20;99.90;;;;;;6068494;23;20034;-86
2022/03/18 03:54:23;;;;;;;36.35;12.57;;;3.80;99.90;;;;;;6085989;23;20022;-88
2022/03/18 03:56:49;;;;;;;25.33;11.82;;;5.10;99.90;;;;;;6064894;23;20037;-93
2022/03/18 03:59:15;;;;;;;30.17;12.73;;;;;;;;;;6087862;23;20058;-96
2022/03/18 04:01:41;;;;;;;30.70;12.82;;;3.90;99.90;;;;;;6082632;23;20025;-85
2022/03/18 04:04:07;;;;;;;29.25;11.80;;;4.00;99.90;;;;;;6109347;23;20022;-91
2022/03/18 04:06:33;;;;;;;33.80;12.77;;;4.10;99.90;;;;;;6067994;23;20015;-86
2022/03/18 04:08:59;;;;;;;23.92;11.55;;;3.70;99.90;;;;;;6093794;23;20283;-87
2022/03/18 04:11:25;;;;;;;32.22;12.43;;;4.70;99.90;;;;;;6046919;23;20022;-86
2022/03/18 04:13:50;;;;;;;22.48;11.95;;;3.70;99.90;;;;;;6044557;23;20026;-86
2022/03/18 04:16:16;;;;;;;38.45;12.90;;;3.70;99.90;;;;;;6069102;23;20014;-86
2022/03/18 04:18:42;;;;;;;23.55;11.35;;;2.00;99.90;;;;;;6093180;23;20038;-88
2022/03/18 04:21:07;;;;;;;27.40;11.90;;;3.60;99.90;;;;;;6091386;23;20485;-86
2022/03/18 04:23:33;;;;;;;29.63;11.73;;;3.70;99.90;;;;;;6017289;23;20037;-90
2022/03/18 04:25:59;;;;;;;28.23;11.88;;;3.60;99.90;;;;;;6090881;23;20026;-86
2022/03/18 04:28:25;;;;;;;27.30;11.55;;;4.20;99.90;;;;;;6092701;23;20354;-86
2022/03/18 04:30:50;;;;;;;26.00;11.15;;;5.90;99.90;;;;;;6094336;23;20472;-87
2022/03/18 04:33:16;;;;;;;31.02;11.40;;;;;;;;;;6095902;23;20022;-87
2022/03/18 04:35:42;;;;;;;27.20;12.65;;;3.60;99.90;;;;;;6070745;23;20022;-86
2022/03/18 04:38:08;;;;;;;36.28;12.70;;;;;;;;;;6093867;23;20037;-87
2022/03/18 04:40:35;;;;;;;36.28;12.95;;;;;;;;;;6093464;23;20018;-87
2022/03/18 04:43:01;;;;;;;27.10;11.25;;;3.30;99.90;;;;;;6069368;23;20024;-86
2022/03/18 04:45:26;;;;;;;30.40;11.88;;;3.50;99.90;;;;;;6094682;23;20097;-87
2022/03/18 04:47:52;;;;;;;33.22;12.90;;;5.00;99.90;;;;;;6094677;23;20054;-92
2022/03/18 04:50:21;;;;;;;30.05;11.68;;;2.90;99.90;;;;;;6069527;23;20141;-87
2022/03/18 04:52:46;;;;;;;26.65;12.52;;;3.60;99.90;;;;;;6094725;23;20029;-87
2022/03/18 04:55:12;;;;;;;21.98;11.52;;;4.30;99.90;;;;;;6070809;23;20014;-87
2022/03/18 04:57:39;;;;;;;36.65;12.52;;;3.50;99.90;;;;;;6069341;23;20290;-87
2022/03/18 05:00:06;;;;;;;26.45;11.88;;;5.50;99.90;;;;;;6095290;23;20053;-87
2022/03/18 05:02:31;;;;;;;35.65;12.85;;;3.50;99.90;;;;;;6069621;23;20329;-87
2022/03/18 05:04:57;;;;;;;27.10;12.15;;;;;;;;;;6069467;23;20117;-86
2022/03/18 05:07:25;;;;;;;24.80;12.32;;;;;;;;;;6047281;23;20029;-87
2022/03/18 05:09:50;;;;;;;25.33;12.07;;;3.50;99.90;;;;;;6070948;23;20037;-87
2022/03/18 05:15:57;;;;;;;30.23;12.43;;;3.60;99.90;;;;;;6095569;23;20014;-87
2022/03/18 05:18:23;;;;;;;33.03;12.20;;;4.00;99.90;;;;;;6096448;23;20018;-88
2022/03/18 05:20:49;;;;;;;28.75;12.23;;;3.80;99.90;;;;;;6094814;23;20082;-88
2022/03/18 05:23:16;;;;;;;28.23;11.60;;;;;;;;;;6096657;23;20023;-86
2022/03/18 05:25:42;;;;;;;24.75;11.20;;;3.40;99.90;;;;;;6084476;23;20283;-87
2022/03/18 05:28:07;;;;;;;19.13;10.50;;;3.30;99.90;;;;;;6069546;23;20022;-89
2022/03/18 05:30:34;;;;;;;28.88;10.93;;;5.90;99.90;;;;;;6069837;23;20026;-86
2022/03/18 05:33:01;;;;;;;23.83;11.90;;;3.60;99.90;;;;;;6070618;23;20037;-87
2022/03/18 05:35:27;;;;;;;29.65;12.82;;;6.00;99.90;;;;;;6093952;23;20258;-86
2022/03/18 05:37:52;;;;;;;23.70;11.73;;;3.50;99.90;;;;;;6000086;23;20335;-87
2022/03/18 05:40:18;;;;;;;32.65;12.60;;;3.30;99.90;;;;;;6095853;23;20417;-87
2022/03/18 05:42:47;;;;;;;34.22;13.00;;;6.10;99.90;;;;;;6022782;23;20021;-87
2022/03/18 05:45:14;;;;;;;38.55;13.27;;;5.90;99.90;;;;;;6096086;23;20022;-87
2022/03/18 05:47:40;;;;;;;26.70;12.70;;;4.80;99.90;;;;;;6095494;23;20105;-87
2022/03/18 05:50:07;;;;;;;44.10;14.35;;;5.90;99.90;;;;;;6095037;23;20057;-87
2022/03/18 05:52:34;;;;;;;28.52;12.43;;;3.30;99.90;;;;;;6096237;23;20090;-87
2022/03/18 05:55:03;;;;;;;27.05;13.15;;;2.00;99.90;;;;;;6046795;23;20129;-88
2022/03/18 05:57:29;;;;;;;36.88;14.40;;;3.60;99.90;;;;;;6070659;23;20029;-87
2022/03/18 05:59:57;;;;;;;31.45;13.45;;;2.50;99.90;;;;;;6096025;23;20014;-87
2022/03/18 06:02:23;;;;;;;25.25;12.75;;;3.30;99.90;;;;;;6096026;23;20019;-88
2022/03/18 06:04:49;;;;;;;22.48;12.10;;;;;;;;;;6095825;23;20098;-87
2022/03/18 06:07:15;;;;;;;32.10;12.85;;;3.40;99.90;;;;;;6070255;23;20018;-87
2022/03/18 06:12:44;;;;;;;35.92;15.57;;;3.40;99.90;;;;;;6097563;23;20069;-86
2022/03/18 06:15:10;;;;;;;31.02;14.95;;;3.50;99.90;;;;;;6095667;23;20022;-87
2022/03/18 06:17:39;;;;;;;37.63;14.65;;;3.40;99.90;;;;;;6070484;23;20014;-88
2022/03/18 06:20:05;;;;;;;31.20;14.85;;;4.30;99.90;;;;;;6046352;23;20015;-88
2022/03/18 06:22:31;;;;;;;27.85;15.05;;;3.50;99.90;;;;;;6071561;23;20393;-89
2022/03/18 06:24:57;;;;;;;35.50;15.00;;;3.90;99.90;;;;;;6046771;23;20058;-88
2022/03/18 06:27:23;;;;;;;26.80;12.38;;;3.90;99.90;;;;;;6097762;23;20018;-88
2022/03/18 06:29:48;;;;;;;28.25;15.18;;;4.00;99.90;;;;;;6047769;23;20030;-90
2022/03/18 06:32:14;;;;;;;39.35;17.65;;;3.60;99.90;;;;;;6072162;23;20486;-88
2022/03/18 06:34:40;;;;;;;31.88;16.77;;;3.80;99.90;;;;;;6047554;23;20025;-87
2022/03/18 06:37:06;;;;;;;31.20;15.85;;;3.70;99.90;;;;;;6095039;23;20494;-87
2022/03/18 06:39:33;;;;;;;31.25;16.27;;;6.60;99.90;;;;;;6048177;23;20438;-87
2022/03/18 06:42:15;;;;;;;30.95;15.70;;;3.80;99.90;;;;;;6072107;23;20031;-88
2022/03/18 06:48:43;;;;;;;36.70;18.45;;;3.90;99.90;;;;;;6098188;23;20017;-87
2022/03/18 06:51:09;;;;;;;39.63;19.98;;;5.10;99.90;;;;;;6048911;23;20112;-88
2022/03/18 06:53:38;;;;;;;38.75;20.17;;;4.10;99.90;;;;;;6072477;23;20438;-87
2022/03/18 06:56:06;;;;;;;35.42;20.50;;;4.30;99.90;;;;;;6047755;23;20022;-87
2022/03/18 07:02:13;;;;;;;50.20;22.42;;;4.30;99.90;;;;;;6097368;23;20476;-86
2022/03/18 07:04:39;;;;;;;40.95;24.98;;;4.40;99.90;;;;;;6071529;23;20037;-87
2022/03/18 07:07:06;;;;;;;52.42;26.60;;;4.20;99.90;;;;;;6096983;23;20022;-87
2022/03/18 07:21:13;;;;;;;51.03;30.38;;;5.40;99.90;;;;;;6096938;23;20009;-87
2022/03/18 07:27:50;;;;;;;59.17;30.75;;;6.00;99.90;;;;;;6097346;23;20366;-87
2022/03/18 08:09:54;;;;;;;25.58;12.60;;;14.70;44.40;;;;;;6064104;23;20038;-87
2022/03/18 08:19:49;;;;;;;24.60;11.00;;;17.10;1.00;;;;;;6097409;23;20014;-88
2022/03/18 08:22:15;;;;;;;20.80;9.77;;;17.80;1.00;;;;;;6047093;23;20037;-87
2022/03/18 08:24:41;;;;;;;20.92;10.00;;;18.00;1.00;;;;;;6023735;23;20446;-88
2022/03/18 08:27:06;;;;;;;23.33;9.98;;;17.40;1.00;;;;;;6022652;23;20032;-87
2022/03/18 08:30:12;;;;;;;22.08;9.48;;;18.70;1.00;;;;;;6046812;23;20025;-87
2022/03/18 08:32:38;;;;;;;27.45;9.50;;;19.10;1.00;;;;;;6046394;23;20102;-87
2022/03/18 08:35:06;;;;;;;22.05;9.15;;;19.50;1.00;;;;;;6070460;23;20097;-87
2022/03/18 08:40:32;;;;;;;22.70;8.88;;;19.90;1.00;;;;;;6052408;23;20381;-87
2022/03/18 08:42:58;;;;;;;23.58;8.73;;;;;;;;;;6071053;23;20465;-87
2022/03/18 08:45:34;;;;;;;19.10;8.60;;;20.30;1.00;;;;;;6046487;23;20046;-87
2022/03/18 08:51:24;;;;;;;26.85;8.40;;;20.90;1.00;;;;;;6071738;23;20414;-87
2022/03/18 08:54:21;;;;;;;20.33;7.88;;;21.50;1.00;;;;;;6071539;23;20023;-87
2022/03/18 08:56:48;;;;;;;21.60;8.10;;;21.90;1.00;;;;;;6047198;23;20428;-88
2022/03/18 08:59:14;;;;;;;24.95;7.95;;;22.10;1.00;;;;;;6095981;23;20019;-88
2022/03/18 09:01:40;;;;;;;24.90;7.82;;;22.00;1.00;;;;;;6047515;23;20014;-86
2022/03/18 09:04:06;;;;;;;25.27;7.68;;;22.40;1.00;;;;;;6046903;23;20018;-88
2022/03/18 09:06:32;;;;;;;18.75;6.88;;;22.80;1.00;;;;;;6023424;23;20022;-88
2022/03/18 09:09:02;;;;;;;24.65;6.82;;;22.80;1.00;;;;;;6023348;23;20040;-88
2022/03/18 09:11:32;;;;;;;18.40;6.75;;;23.00;1.00;;;;;;6048230;23;20029;-87
2022/03/18 09:13:58;;;;;;;20.88;7.03;;;23.40;1.00;;;;;;6043968;23;20387;-87
2022/03/18 09:16:26;;;;;;;17.63;7.07;;;23.80;1.00;;;;;;6048347;23;20022;-87
2022/03/18 09:18:58;;;;;;;21.48;6.63;;;23.80;1.00;;;;;;6047197;23;20019;-88
2022/03/18 09:21:24;;;;;;;21.90;7.25;;;24.10;1.00;;;;;;6023881;23;20039;-87
2022/03/18 09:23:50;;;;;;;22.95;7.72;;;23.80;1.00;;;;;;6096924;23;20389;-88
2022/03/18 09:26:37;;;;;;;23.85;7.13;;;23.90;1.00;;;;;;6023640;23;20085;-87
2022/03/18 09:29:03;;;;;;;20.88;6.95;;;23.70;1.00;;;;;;6048031;23;20050;-87
2022/03/18 09:31:32;;;;;;;17.15;6.30;;;24.30;1.00;;;;;;6047406;23;20022;-88
2022/03/18 09:38:26;;;;;;;23.70;6.97;;;24.80;1.00;;;;;;6096408;23;20041;-87
2022/03/18 09:51:49;;;;;;;16.50;6.57;;;25.80;1.00;;;;;;6096055;23;20077;-88
2022/03/18 09:54:16;;;;;;;18.00;6.18;;;26.20;1.00;;;;;;6070689;23;20501;-87
2022/03/18 10:00:45;;;;;;;16.60;5.65;;;26.40;1.00;;;;;;6096345;23;20338;-88
2022/03/18 10:07:29;;;;;;;22.30;6.75;;;25.70;1.00;;;;;;6096648;23;20130;-88
2022/03/18 10:17:42;;;;;;;20.60;6.55;;;25.30;99.90;;;;;;6096812;23;20026;-88
2022/03/18 10:24:10;;;;;;;18.42;6.60;;;25.30;1.00;;;;;;6096338;23;20024;-88
2022/03/18 10:30:21;;;;;;;24.35;6.55;;;24.60;99.90;;;;;;6096494;23;20017;-88
2022/03/18 10:37:11;;;;;;;17.33;5.82;;;25.50;99.90;;;;;;6095256;23;20053;-88
2022/03/18 10:39:39;;;;;;;20.17;5.65;;;26.60;99.90;;;;;;6046081;23;20053;-88
2022/03/18 10:42:10;;;;;;;19.13;5.15;;;26.90;99.90;;;;;;6070476;23;20019;-88
2022/03/18 10:44:55;;;;;;;15.27;5.65;;;26.10;99.90;;;;;;6094220;23;20450;-88
2022/03/18 10:47:39;;;;;;;19.90;5.30;;;26.00;99.90;;;;;;6046642;23;20426;-88
2022/03/18 10:50:11;;;;;;;21.73;5.90;;;26.40;99.90;;;;;;6046050;23;20449;-88
2022/03/18 10:52:49;;;;;;;16.83;5.72;;;25.90;99.90;;;;;;6070220;23;20482;-88
2022/03/18 10:58:45;;;;;;;20.95;5.40;;;25.80;99.90;;;;;;6084469;23;20057;-88
2022/03/18 11:01:11;;;;;;;18.45;5.45;;;;;;;;;;6047690;23;20026;-88
2022/03/18 11:03:37;;;;;;;20.57;6.07;;;26.20;99.90;;;;;;6023976;23;20042;-87
2022/03/18 11:06:03;;;;;;;18.58;4.68;;;25.40;99.90;;;;;;6094935;23;20048;-88
2022/03/18 11:08:37;;;;;;;19.27;5.10;;;26.20;99.90;;;;;;6047228;23;20054;-88
2022/03/18 11:11:15;;;;;;;15.18;4.60;;;27.60;99.90;;;;;;6046882;23;20040;-88
2022/03/18 11:13:50;;;;;;;14.20;5.07;;;27.10;99.90;;;;;;6070400;23;20030;-88
2022/03/18 11:16:19;;;;;;;16.45;5.25;;;26.50;99.90;;;;;;6069996;23;20026;-90
2022/03/18 11:18:47;;;;;;;15.25;4.80;;;26.10;99.90;;;;;;6045104;23;20031;-88
2022/03/18 11:21:12;;;;;;;;;;;25.90;99.90;;;;;;6069722;23;20026;-89
2022/03/18 11:23:40;;;;;;;19.02;5.38;;;25.40;99.90;;;;;;6068172;23;20287;-88
2022/03/18 11:26:07;;;;;;;17.30;4.70;;;26.20;99.90;;;;;;6070093;23;20014;-87
2022/03/18 11:28:33;;;;;;;27.13;5.82;;;26.90;99.90;;;;;;6070385;23;20405;-86
2022/03/18 11:31:07;;;;;;;19.75;5.95;;;27.00;99.90;;;;;;6045434;23;20423;-91
2022/03/18 11:33:35;;;;;;;18.38;5.40;;;27.40;99.90;;;;;;6045714;23;20069;-85
2022/03/18 11:36:00;;;;;;;;;;;27.60;99.90;;;;;;6095416;23;20490;-92
2022/03/18 11:38:46;;;;;;;16.88;5.28;;;27.50;99.90;;;;;;6095142;23;19957;-86
2022/03/18 11:41:12;;;;;;;19.95;6.25;;;27.60;99.90;;;;;;6073959;23;20022;-86
2022/03/18 11:43:41;;;;;;;17.00;5.60;;;27.90;99.90;;;;;;6096080;23;20080;-86
2022/03/18 11:46:13;;;;;;;16.98;6.05;;;28.20;99.90;;;;;;6095073;23;20029;-87
2022/03/18 11:48:52;;;;;;;17.80;5.35;;;28.00;99.90;;;;;;6095398;23;20022;-87
2022/03/18 11:51:32;;;;;;;19.40;5.65;;;28.00;99.90;;;;;;6091040;23;20018;-87
2022/03/18 11:54:12;;;;;;;20.15;5.35;;;28.00;99.90;;;;;;6095150;23;20085;-87
2022/03/18 11:56:50;;;;;;;15.07;4.65;;;27.70;99.90;;;;;;6069478;23;20010;-86
2022/03/18 11:59:28;;;;;;;15.43;4.63;;;28.00;99.90;;;;;;6094916;23;20018;-88
2022/03/18 12:01:54;;;;;;;14.23;4.95;;;28.10;99.90;;;;;;6095636;23;20108;-88
2022/03/18 12:04:42;;;;;;;17.73;5.10;;;28.30;99.90;;;;;;6044755;23;20017;-88
2022/03/18 12:07:28;;;;;;;19.13;5.60;;;27.60;99.90;;;;;;6069233;23;20326;-88
2022/03/18 12:10:07;;;;;;;16.63;5.05;;;27.30;99.90;;;;;;6094064;23;20286;-87
2022/03/18 12:12:47;;;;;;;17.63;5.03;;;26.00;99.90;;;;;;6093614;23;20340;-87
2022/03/18 12:15:19;;;;;;;16.15;5.00;;;24.80;99.90;;;;;;6045296;23;20452;-87
2022/03/18 12:17:47;;;;;;;17.33;4.93;;;23.30;99.90;;;;;;6069377;23;20373;-87
2022/03/18 12:20:18;;;;;;;14.35;4.28;;;23.10;99.90;;;;;;6094399;23;20041;-87
2022/03/18 12:22:44;;;;;;;16.30;4.30;;;22.40;99.90;;;;;;6045775;23;20018;-87
2022/03/18 12:25:11;;;;;;;23.58;4.95;;;21.80;99.90;;;;;;6069461;23;20377;-87
2022/03/18 12:27:38;;;;;;;20.08;4.88;;;21.30;99.90;;;;;;6045452;23;20014;-86
2022/03/18 12:30:11;;;;;;;16.75;4.82;;;20.90;99.90;;;;;;6069838;23;20023;-95
2022/03/18 12:32:48;;;;;;;16.33;4.53;;;20.60;99.90;;;;;;6095139;23;20019;-86
2022/03/18 12:35:16;;;;;;;18.17;4.82;;;20.10;99.90;;;;;;6068274;23;20477;-87
2022/03/18 12:37:45;;;;;;;15.98;5.07;;;19.70;99.90;;;;;;6068878;23;20018;-86
2022/03/18 12:40:16;;;;;;;23.08;4.85;;;19.40;1.00;;;;;;6094333;23;20022;-86
2022/03/18 12:42:46;;;;;;;19.65;5.40;;;19.10;1.00;;;;;;6095030;23;20014;-87
2022/03/18 12:45:12;;;;;;;16.48;4.85;;;18.90;1.00;;;;;;6068530;23;20037;-86
2022/03/18 12:47:38;;;;;;;16.77;4.70;;;18.60;1.00;;;;;;6069079;23;20077;-87
2022/03/18 12:50:04;;;;;;;20.73;4.55;;;17.40;1.00;;;;;;6068736;23;20089;-86
2022/03/18 12:52:30;;;;;;;17.60;4.90;;;18.30;1.00;;;;;;6093145;23;20029;-87
2022/03/18 12:55:09;;;;;;;16.60;4.53;;;18.10;1.00;;;;;;6093163;23;20029;-86
2022/03/18 12:57:38;;;;;;;20.27;4.57;;;18.00;1.00;;;;;;6093080;23;20018;-85
2022/03/18 13:00:08;;;;;;;16.55;5.20;;;19.30;1.00;;;;;;6094823;23;20025;-86
2022/03/18 13:02:34;;;;;;;12.55;4.47;;;17.50;1.00;;;;;;6094312;23;20440;-86
2022/03/18 13:05:05;;;;;;;21.08;6.13;;;17.30;1.00;;;;;;6045118;23;20461;-86
2022/03/18 13:07:32;;;;;;;14.73;3.92;;;17.20;1.00;;;;;;6069439;23;20045;-85
2022/03/18 13:09:57;;;;;;;19.55;4.88;;;17.00;1.00;;;;;;6044751;23;20437;-86
2022/03/18 13:12:28;;;;;;;19.42;4.90;;;17.00;1.00;;;;;;6068845;23;20022;-86
2022/03/18 13:14:54;;;;;;;15.95;4.80;;;16.90;1.00;;;;;;6044798;23;20014;-85
2022/03/18 13:17:30;;;;;;;16.83;4.40;;;17.80;1.00;;;;;;6092083;23;20024;-86
2022/03/18 13:19:56;;;;;;;14.02;4.80;;;16.60;1.00;;;;;;6092442;23;20054;-85
2022/03/18 13:22:24;;;;;;;12.68;4.43;;;16.70;1.00;;;;;;6094018;23;20058;-90
2022/03/18 13:24:51;;;;;;;18.85;5.05;;;16.60;1.00;;;;;;6093169;23;20018;-87
2022/03/18 13:27:20;;;;;;;14.75;4.88;;;16.60;1.00;;;;;;6092227;23;20041;-85
2022/03/18 13:32:51;;;;;;;20.13;5.38;;;16.60;1.00;;;;;;6094054;23;20076;-86
2022/03/18 13:35:22;;;;;;;21.00;5.00;;;16.60;1.00;;;;;;6022397;23;20026;-84
2022/03/18 13:38:12;;;;;;;14.40;4.55;;;16.10;1.00;;;;;;6095130;23;20032;-86
2022/03/18 13:40:57;;;;;;;15.10;5.10;;;16.60;1.00;;;;;;6069312;23;20018;-85
2022/03/18 13:43:29;;;;;;;16.42;5.47;;;16.40;1.00;;;;;;6094977;23;20124;-85
2022/03/18 13:46:20;;;;;;;15.98;5.22;;;16.30;1.00;;;;;;6095476;23;20018;-87
2022/03/18 13:48:47;;;;;;;17.25;4.90;;;16.30;1.00;;;;;;6094381;23;20450;-86
2022/03/18 13:51:42;;;;;;;18.50;4.72;;;16.20;1.00;;;;;;6094342;23;20022;-87
2022/03/18 13:54:13;;;;;;;15.27;4.75;;;16.20;1.00;;;;;;6093863;23;20027;-86
2022/03/18 13:56:42;;;;;;;16.20;4.43;;;16.00;1.00;;;;;;6094688;23;20018;-87
2022/03/18 13:59:10;;;;;;;14.57;4.55;;;15.90;1.00;;;;;;6068641;23;20019;-86
2022/03/18 14:01:36;;;;;;;17.88;4.15;;;15.90;1.00;;;;;;6068789;23;20072;-85
2022/03/18 14:04:02;;;;;;;18.13;4.70;;;15.50;1.00;;;;;;6093635;23;20026;-86
2022/03/18 14:06:27;;;;;;;23.17;4.75;;;15.40;1.00;;;;;;6093571;23;20018;-86
2022/03/18 14:08:54;;;;;;;22.38;4.65;;;15.40;1.00;;;;;;6094203;23;20029;-86
2022/03/18 14:14:18;;;;;;;18.92;4.35;;;15.40;1.00;;;;;;6093502;23;20354;-86
2022/03/18 14:17:16;;;;;;;27.77;5.65;;;15.40;1.00;;;;;;6094371;23;20454;-85
2022/03/18 14:19:44;;;;;;;20.52;4.43;;;15.40;1.00;;;;;;6068330;23;20022;-85
2022/03/18 14:22:30;;;;;;;14.30;3.97;;;15.30;1.00;;;;;;6068348;23;20049;-86
2022/03/18 14:24:56;;;;;;;19.48;4.47;;;15.30;1.00;;;;;;6093165;23;20030;-86
2022/03/18 14:27:22;;;;;;;19.30;5.03;;;15.30;1.00;;;;;;6093961;23;20275;-85
2022/03/18 14:29:48;;;;;;;19.85;4.78;;;15.30;1.00;;;;;;6068700;23;20033;-85
2022/03/18 14:32:14;;;;;;;19.10;4.90;;;15.20;1.00;;;;;;6069867;23;20489;-89
2022/03/18 14:34:39;;;;;;;17.83;3.83;;;15.20;1.00;;;;;;6069789;23;20410;-86
2022/03/18 14:37:05;;;;;;;14.23;4.18;;;15.00;1.00;;;;;;6069957;23;20034;-89
2022/03/18 14:39:31;;;;;;;13.30;3.63;;;14.90;1.00;;;;;;6095458;23;20027;-86
2022/03/18 14:41:57;;;;;;;17.95;4.72;;;15.00;1.00;;;;;;6095969;23;20033;-86
2022/03/18 14:44:23;;;;;;;18.90;4.70;;;14.80;1.00;;;;;;6094010;23;20142;-85
2022/03/18 14:46:48;;;;;;;16.95;4.28;;;14.90;1.00;;;;;;6096184;23;20086;-86
2022/03/18 14:49:14;;;;;;;18.63;4.35;;;14.90;1.00;;;;;;6094495;23;20023;-86
2022/03/18 14:51:40;;;;;;;21.42;5.32;;;14.80;1.00;;;;;;6096008;23;20027;-86
2022/03/18 14:54:06;;;;;;;17.42;4.80;;;14.80;1.00;;;;;;6093975;23;20057;-85
2022/03/18 14:56:31;;;;;;;32.67;5.45;;;14.70;1.00;;;;;;6095406;23;20488;-85
2022/03/18 14:59:00;;;;;;;21.35;5.70;;;14.70;1.00;;;;;;6094163;23;20045;-85
2022/03/18 15:01:27;;;;;;;18.33;5.00;;;14.80;1.00;;;;;;6069699;23;20041;-85
2022/03/18 15:03:59;;;;;;;24.40;5.15;;;14.90;1.00;;;;;;6095444;23;20026;-86
2022/03/18 15:06:27;;;;;;;16.10;4.85;;;14.90;1.00;;;;;;6095000;23;20037;-85
2022/03/18 15:08:53;;;;;;;18.75;4.22;;;15.00;1.00;;;;;;6095612;23;20334;-87
2022/03/18 15:11:19;;;;;;;17.70;4.00;;;14.70;1.00;;;;;;6070168;23;20402;-86
2022/03/18 15:13:46;;;;;;;13.32;3.70;;;14.60;1.00;;;;;;6095815;23;20030;-86
2022/03/18 15:16:14;;;;;;;23.35;4.78;;;14.60;1.00;;;;;;6095826;23;20025;-85
2022/03/18 15:18:40;;;;;;;20.23;4.05;;;14.50;1.00;;;;;;6070235;23;20060;-85
2022/03/18 15:21:09;;;;;;;19.45;3.42;;;12.80;1.00;;;;;;6045920;23;20022;-86
2022/03/18 15:23:35;;;;;;;13.80;3.33;;;14.50;1.00;;;;;;6094277;23;20197;-86
2022/03/18 15:26:05;;;;;;;14.25;3.55;;;14.40;1.00;;;;;;6095143;23;20049;-85
2022/03/18 15:28:31;;;;;;;19.70;4.88;;;14.30;1.00;;;;;;6022703;23;20022;-85